createdAt,value
2023-03-24T00:02:12.453Z,99.90
2023-03-24T00:04:42.382Z,99.90
2023-03-24T00:07:10.161Z,99.90
2023-03-24T00:09:38.449Z,99.90
2023-03-24T00:12:07.587Z,99.90
2023-03-24T00:14:43.511Z,99.90
2023-03-24T00:17:11.773Z,99.90
2023-03-24T00:19:45.639Z,99.90
2023-03-24T00:22:14.841Z,99.90
2023-03-24T00:24:42.505Z,99.90
2023-03-24T00:27:10.474Z,99.90
2023-03-24T00:29:40.291Z,99.90
2023-03-24T00:32:08.367Z,99.40
2023-03-24T00:34:35.924Z,98.90
2023-03-24T00:37:06.228Z,99.00
2023-03-24T00:39:33.818Z,98.70
2023-03-24T00:42:03.792Z,98.60
2023-03-24T00:44:33.317Z,99.00
2023-03-24T00:47:02.411Z,99.60
2023-03-24T00:49:32.648Z,99.60
2023-03-24T00:52:00.190Z,99.40
2023-03-24T00:54:28.619Z,99.70
2023-03-24T00:56:56.317Z,99.50
2023-03-24T00:59:27.648Z,99.40
2023-03-24T01:01:55.267Z,99.30
2023-03-24T01:04:25.631Z,99.00
2023-03-24T01:06:53.416Z,98.00
2023-03-24T01:09:24.151Z,95.40
2023-03-24T01:11:55.047Z,91.90
2023-03-24T01:14:22.975Z,91.60
2023-03-24T01:16:52.065Z,90.30
2023-03-24T01:19:22.065Z,91.60
2023-03-24T01:21:52.666Z,91.30
2023-03-24T01:24:20.629Z,90.50
2023-03-24T01:26:50.508Z,90.90
2023-03-24T01:29:20.367Z,90.30
2023-03-24T01:31:53.516Z,89.80
2023-03-24T01:34:22.619Z,89.60
2023-03-24T01:36:50.350Z,89.90
2023-03-24T01:39:20.662Z,89.80
2023-03-24T01:41:48.280Z,88.40
2023-03-24T01:44:15.834Z,88.10
2023-03-24T01:46:45.571Z,87.50
2023-03-24T01:49:13.188Z,84.90
2023-03-24T01:51:40.751Z,84.60
2023-03-24T01:54:08.552Z,85.00
2023-03-24T01:56:36.298Z,85.00
2023-03-24T01:59:05.246Z,87.10
2023-03-24T02:01:35.241Z,86.40
2023-03-24T02:04:03.388Z,85.70
2023-03-24T02:06:30.937Z,85.50
2023-03-24T02:08:58.639Z,86.20
2023-03-24T02:11:26.709Z,84.60
2023-03-24T02:13:54.490Z,84.80
2023-03-24T02:16:22.439Z,84.50
2023-03-24T02:18:50.293Z,84.30
2023-03-24T02:21:17.854Z,83.90
2023-03-24T02:23:47.532Z,83.00
2023-03-24T02:26:15.779Z,82.70
2023-03-24T02:28:43.424Z,80.20
2023-03-24T02:31:13.750Z,79.40
2023-03-24T02:33:41.592Z,78.00
2023-03-24T02:36:09.205Z,78.50
2023-03-24T02:38:39.332Z,76.80
2023-03-24T02:41:07.043Z,78.30
2023-03-24T02:43:34.622Z,76.90
2023-03-24T02:46:04.574Z,75.00
2023-03-24T02:48:32.693Z,71.30
2023-03-24T02:51:00.249Z,72.30
2023-03-24T02:53:30.513Z,72.40
2023-03-24T02:55:58.148Z,73.90
2023-03-24T02:58:25.674Z,72.20
2023-03-24T03:00:55.582Z,71.50
2023-03-24T03:03:28.456Z,74.00
2023-03-24T03:05:56.066Z,68.30
2023-03-24T03:08:25.970Z,68.70
2023-03-24T03:10:53.654Z,68.50
2023-03-24T03:13:21.211Z,69.40
2023-03-24T03:15:49.138Z,70.50
2023-03-24T03:18:17.300Z,66.30
2023-03-24T03:20:45.039Z,66.70
2023-03-24T03:23:15.250Z,67.50
2023-03-24T03:25:43.230Z,67.00
2023-03-24T03:28:10.873Z,66.50
2023-03-24T03:30:40.845Z,66.60
2023-03-24T03:33:09.588Z,65.10
2023-03-24T03:35:37.354Z,66.30
2023-03-24T03:38:05.280Z,66.40
2023-03-24T03:40:33.012Z,65.50
2023-03-24T03:43:00.731Z,66.90
2023-03-24T03:45:30.852Z,65.10
2023-03-24T03:47:58.520Z,64.40
2023-03-24T03:50:26.060Z,62.70
2023-03-24T03:52:53.956Z,64.10
2023-03-24T03:55:21.528Z,63.30
2023-03-24T03:57:49.068Z,62.90
2023-03-24T04:00:19.064Z,62.50
2023-03-24T04:02:47.084Z,62.00
2023-03-24T04:05:15.558Z,61.60
2023-03-24T04:07:45.600Z,61.80
2023-03-24T04:10:13.187Z,61.30
2023-03-24T04:12:40.801Z,61.10
2023-03-24T04:15:11.141Z,61.50
2023-03-24T04:17:38.848Z,61.70
2023-03-24T04:20:06.423Z,61.90
2023-03-24T04:22:36.282Z,59.30
2023-03-24T04:25:03.912Z,60.00
2023-03-24T04:27:31.884Z,60.00
2023-03-24T04:30:01.934Z,60.10
2023-03-24T04:32:29.603Z,59.20
2023-03-24T04:34:57.225Z,58.70
2023-03-24T04:37:25.355Z,56.40
2023-03-24T04:39:53.156Z,55.30
2023-03-24T04:42:20.732Z,55.20
2023-03-24T04:44:50.762Z,54.40
2023-03-24T04:47:18.583Z,55.60
2023-03-24T04:49:46.139Z,57.40
2023-03-24T04:52:17.817Z,55.80
2023-03-24T04:54:45.751Z,54.90
2023-03-24T04:57:13.407Z,55.60
2023-03-24T04:59:43.513Z,55.50
2023-03-24T05:02:11.179Z,56.00
2023-03-24T05:04:38.832Z,55.40
2023-03-24T05:07:06.711Z,54.00
2023-03-24T05:09:34.597Z,54.60
2023-03-24T05:12:02.356Z,53.50
2023-03-24T05:14:32.533Z,54.50
2023-03-24T05:17:00.166Z,55.30
2023-03-24T05:19:37.486Z,55.70
2023-03-24T05:22:05.047Z,54.50
2023-03-24T05:24:35.944Z,55.20
2023-03-24T05:27:03.875Z,54.30
2023-03-24T05:29:31.593Z,53.90
2023-03-24T05:31:59.150Z,52.60
2023-03-24T05:34:28.618Z,53.90
2023-03-24T05:36:56.262Z,54.60
2023-03-24T05:39:23.846Z,54.90
2023-03-24T05:41:51.708Z,54.60
2023-03-24T05:44:19.457Z,53.90
2023-03-24T05:46:47.530Z,55.50
2023-03-24T05:49:17.964Z,54.20
2023-03-24T05:51:45.568Z,53.60
2023-03-24T05:54:13.142Z,53.90
2023-03-24T05:56:41.107Z,52.80
2023-03-24T05:59:09.592Z,52.30
2023-03-24T06:01:40.664Z,53.20
2023-03-24T06:04:11.297Z,53.90
2023-03-24T06:06:47.984Z,52.50
2023-03-24T06:12:10.761Z,54.50
2023-03-24T06:14:44.042Z,53.30
2023-03-24T06:17:16.136Z,53.00
2023-03-24T06:19:59.408Z,51.00
2023-03-24T06:22:37.173Z,49.70
2023-03-24T06:25:07.627Z,49.00
2023-03-24T06:33:21.069Z,48.40
2023-03-24T06:38:58.185Z,48.80
2023-03-24T06:41:43.038Z,47.70
2023-03-24T06:44:22.490Z,47.40
2023-03-24T06:46:50.131Z,45.50
2023-03-24T06:49:29.010Z,48.40
2023-03-24T06:52:30.876Z,51.20
2023-03-24T07:05:13.329Z,51.80
2023-03-24T07:07:00.888Z,51.90
2023-03-24T07:12:33.403Z,51.40
2023-03-24T07:15:01.250Z,52.30
2023-03-24T07:17:28.906Z,52.20
2023-03-24T07:19:58.488Z,51.90
2023-03-24T07:22:26.505Z,50.90
2023-03-24T07:24:54.520Z,50.90
2023-03-24T07:27:24.840Z,51.00
2023-03-24T07:29:52.413Z,51.70
2023-03-24T07:32:19.958Z,52.00
2023-03-24T07:34:49.669Z,51.90
2023-03-24T07:37:17.473Z,49.80
2023-03-24T07:39:45.073Z,49.30
2023-03-24T07:42:16.918Z,50.50
2023-03-24T07:44:44.698Z,50.60
2023-03-24T07:47:12.232Z,51.00
2023-03-24T07:49:42.938Z,51.70
2023-03-24T07:52:10.580Z,51.00
2023-03-24T07:54:38.198Z,50.30
2023-03-24T07:57:13.708Z,49.80
2023-03-24T07:59:41.685Z,49.30
2023-03-24T08:02:14.514Z,49.50
2023-03-24T08:04:42.840Z,49.10
2023-03-24T08:07:10.675Z,47.70
2023-03-24T08:09:40.778Z,47.50
2023-03-24T08:12:17.790Z,48.60
2023-03-24T08:14:51.902Z,47.10
2023-03-24T08:17:19.522Z,47.20
2023-03-24T08:19:58.997Z,47.30
2023-03-24T08:22:30.366Z,45.00
2023-03-24T08:24:58.021Z,46.30
2023-03-24T08:27:25.648Z,49.10
2023-03-24T08:29:54.197Z,49.10
2023-03-24T08:32:21.743Z,50.10
2023-03-24T08:34:49.400Z,50.40
2023-03-24T08:37:18.236Z,49.60
2023-03-24T08:39:45.808Z,49.90
2023-03-24T08:42:25.352Z,49.50
2023-03-24T08:44:53.128Z,49.80
2023-03-24T08:47:20.880Z,50.80
2023-03-24T08:49:50.547Z,51.60
2023-03-24T08:52:18.084Z,51.60
2023-03-24T08:54:45.646Z,51.30
2023-03-24T08:57:13.823Z,51.80
2023-03-24T08:59:41.347Z,52.40
2023-03-24T09:02:08.937Z,52.70
2023-03-24T09:04:36.939Z,53.10
2023-03-24T09:07:04.499Z,52.30
2023-03-24T09:09:32.942Z,52.10
2023-03-24T09:12:00.940Z,51.10
2023-03-24T09:14:28.529Z,51.60
2023-03-24T09:16:56.282Z,51.50
2023-03-24T09:19:26.825Z,52.00
2023-03-24T09:21:54.409Z,53.20
2023-03-24T09:24:21.970Z,53.20
2023-03-24T09:26:52.754Z,53.70
2023-03-24T09:29:20.551Z,53.80
2023-03-24T09:31:50.021Z,53.90
2023-03-24T09:34:25.812Z,54.40
2023-03-24T09:37:19.049Z,54.40
2023-03-24T09:40:00.231Z,53.50
2023-03-24T09:42:30.589Z,53.40
2023-03-24T09:45:01.934Z,52.60
2023-03-24T09:47:34.327Z,52.80
2023-03-24T09:50:08.256Z,53.80
2023-03-24T09:52:42.182Z,54.20
2023-03-24T09:55:14.668Z,55.00
2023-03-24T09:57:51.563Z,55.30
2023-03-24T10:00:24.128Z,55.60
2023-03-24T10:08:39.702Z,56.20
2023-03-24T10:11:15.631Z,55.60
2023-03-24T10:13:47.796Z,54.90
2023-03-24T10:16:30.011Z,55.10
2023-03-24T10:19:03.126Z,55.80
2023-03-24T10:21:35.118Z,56.70
2023-03-24T10:24:09.043Z,57.20
2023-03-24T10:26:44.012Z,58.00
2023-03-24T10:29:12.067Z,57.30
2023-03-24T10:31:45.686Z,57.50
2023-03-24T10:34:16.553Z,57.70
2023-03-24T10:36:50.107Z,58.50
2023-03-24T10:39:21.191Z,58.70
2023-03-24T10:41:54.424Z,59.70
2023-03-24T10:44:22.018Z,59.80
2023-03-24T10:46:49.576Z,60.70
2023-03-24T10:49:20.078Z,60.90
2023-03-24T10:51:47.679Z,60.70
2023-03-24T10:54:15.318Z,61.80
2023-03-24T10:56:43.287Z,61.90
2023-03-24T10:59:10.873Z,61.70
2023-03-24T11:01:38.493Z,62.40
2023-03-24T11:04:08.816Z,63.70
2023-03-24T11:06:36.359Z,63.60
2023-03-24T11:09:03.917Z,62.50
2023-03-24T11:11:34.112Z,62.80
2023-03-24T11:14:01.874Z,62.50
2023-03-24T11:16:29.595Z,62.90
2023-03-24T11:18:57.807Z,63.60
2023-03-24T11:21:25.390Z,64.00
2023-03-24T11:23:52.930Z,64.30
2023-03-24T11:26:22.800Z,64.80
2023-03-24T11:28:50.465Z,65.00
2023-03-24T11:31:18.065Z,66.10
2023-03-24T11:33:48.295Z,66.10
2023-03-24T11:36:15.883Z,66.40
2023-03-24T11:38:43.423Z,66.50
2023-03-24T11:41:13.606Z,66.20
2023-03-24T11:43:41.223Z,65.50
2023-03-24T11:46:08.901Z,65.10
2023-03-24T11:48:41.232Z,65.10
2023-03-24T11:51:09.693Z,65.00
2023-03-24T11:53:37.444Z,64.90
2023-03-24T11:56:07.734Z,65.70
2023-03-24T11:58:35.510Z,66.00
2023-03-24T12:01:03.707Z,67.20
2023-03-24T12:03:32.486Z,67.20
2023-03-24T12:06:00.639Z,67.50
2023-03-24T12:08:28.404Z,69.10
2023-03-24T12:10:58.850Z,68.40
2023-03-24T12:13:32.797Z,67.30
2023-03-24T12:16:04.055Z,68.40
2023-03-24T12:18:45.771Z,68.70
2023-03-24T12:21:14.001Z,68.20
2023-03-24T12:23:41.941Z,67.90
2023-03-24T12:26:09.544Z,68.20
2023-03-24T12:28:38.003Z,69.00
2023-03-24T12:31:14.680Z,68.90
2023-03-24T12:33:44.955Z,68.60
2023-03-24T12:36:12.761Z,69.80
2023-03-24T12:38:40.601Z,69.50
2023-03-24T12:41:08.689Z,69.50
2023-03-24T12:43:36.467Z,69.40
2023-03-24T12:46:04.181Z,68.30
2023-03-24T12:48:32.450Z,68.80
2023-03-24T12:51:00.222Z,69.30
2023-03-24T12:53:32.424Z,70.30
2023-03-24T12:56:11.613Z,70.30
2023-03-24T12:58:39.306Z,69.40
2023-03-24T13:01:07.439Z,69.10
2023-03-24T13:03:35.660Z,68.70
2023-03-24T13:06:14.512Z,69.00
2023-03-24T13:08:45.921Z,69.20
2023-03-24T13:11:21.900Z,70.30
2023-03-24T13:14:00.555Z,70.00
2023-03-24T13:16:28.204Z,69.70
2023-03-24T13:18:55.776Z,70.20
2023-03-24T13:21:23.873Z,70.80
2023-03-24T13:23:51.414Z,71.40
2023-03-24T13:26:19.348Z,73.10
2023-03-24T13:28:50.097Z,73.10
2023-03-24T13:31:17.694Z,73.80
2023-03-24T13:33:47.909Z,73.10
2023-03-24T13:36:16.016Z,73.40
2023-03-24T13:38:43.633Z,73.50
2023-03-24T13:41:16.474Z,72.40
2023-03-24T13:43:44.931Z,72.40
2023-03-24T13:46:12.858Z,70.30
2023-03-24T13:48:42.704Z,69.30
2023-03-24T13:51:10.638Z,67.70
2023-03-24T13:53:38.330Z,66.00
2023-03-24T13:56:06.486Z,66.20
2023-03-24T13:58:34.117Z,66.40
2023-03-24T14:01:01.790Z,65.20
2023-03-24T14:03:32.088Z,65.90
2023-03-24T14:05:59.815Z,66.10
2023-03-24T14:08:27.418Z,65.80
2023-03-24T14:10:57.730Z,65.80
2023-03-24T14:13:25.417Z,65.20
2023-03-24T14:15:53.227Z,65.80
2023-03-24T14:18:24.225Z,64.90
2023-03-24T14:20:56.448Z,65.40
2023-03-24T14:23:29.476Z,65.00
2023-03-24T14:26:00.060Z,64.60
2023-03-24T14:28:30.555Z,64.20
2023-03-24T14:30:58.580Z,64.80
2023-03-24T14:33:26.407Z,65.30
2023-03-24T14:35:56.804Z,65.40
2023-03-24T14:38:24.559Z,65.10
2023-03-24T14:40:52.135Z,65.50
2023-03-24T14:43:22.055Z,66.80
2023-03-24T14:45:50.026Z,68.10
2023-03-24T14:48:18.409Z,68.30
2023-03-24T14:50:48.667Z,68.50
2023-03-24T14:53:16.902Z,68.50
2023-03-24T14:55:44.687Z,69.10
2023-03-24T14:58:12.681Z,69.50
2023-03-24T15:00:40.770Z,69.80
2023-03-24T15:03:08.519Z,70.50
2023-03-24T15:05:39.228Z,71.10
2023-03-24T15:08:09.541Z,72.40
2023-03-24T15:10:37.446Z,72.00
2023-03-24T15:13:07.719Z,71.60
2023-03-24T15:15:35.461Z,71.70
2023-03-24T15:18:03.228Z,72.20
2023-03-24T15:20:35.182Z,71.20
2023-03-24T15:23:03.665Z,71.40
2023-03-24T15:25:31.361Z,71.60
2023-03-24T15:27:59.900Z,71.50
2023-03-24T15:30:30.548Z,70.90
2023-03-24T15:32:58.222Z,71.30
2023-03-24T15:35:26.226Z,71.90
2023-03-24T15:37:54.130Z,71.90
2023-03-24T15:40:21.777Z,73.10
2023-03-24T15:42:49.769Z,73.10
2023-03-24T15:45:17.561Z,72.80
2023-03-24T15:47:45.213Z,72.30
2023-03-24T15:50:13.306Z,71.30
2023-03-24T15:52:40.974Z,71.00
2023-03-24T15:55:08.574Z,71.00
2023-03-24T15:57:38.341Z,70.60
2023-03-24T16:00:06.831Z,70.50
2023-03-24T16:02:34.543Z,70.20
2023-03-24T16:07:35.231Z,69.40
2023-03-24T16:10:02.824Z,69.20
2023-03-24T16:12:32.775Z,68.80
2023-03-24T16:15:00.665Z,69.00
2023-03-24T16:17:28.433Z,69.10
2023-03-24T16:19:58.315Z,69.60
2023-03-24T16:22:26.077Z,69.80
2023-03-24T16:24:53.635Z,71.00
2023-03-24T16:27:23.411Z,72.40
2023-03-24T16:29:51.156Z,73.50
2023-03-24T16:32:18.672Z,73.60
2023-03-24T16:34:48.756Z,73.70
2023-03-24T16:37:16.511Z,73.10
2023-03-24T16:39:44.104Z,72.50
2023-03-24T16:42:14.122Z,71.70
2023-03-24T16:44:41.876Z,72.10
2023-03-24T16:47:09.427Z,73.30
2023-03-24T16:49:39.398Z,74.70
2023-03-24T16:52:07.094Z,76.90
2023-03-24T16:54:36.042Z,77.70
2023-03-24T16:57:05.874Z,78.00
2023-03-24T16:59:33.801Z,78.70
2023-03-24T17:02:01.482Z,78.00
2023-03-24T17:04:31.291Z,77.70
2023-03-24T17:06:58.979Z,78.70
2023-03-24T17:09:26.521Z,79.50
2023-03-24T17:11:56.352Z,78.80
2023-03-24T17:14:24.157Z,78.80
2023-03-24T17:16:51.712Z,79.80
2023-03-24T17:19:21.890Z,78.90
2023-03-24T17:21:49.469Z,78.30
2023-03-24T17:24:17.028Z,79.10
2023-03-24T17:26:46.926Z,79.40
2023-03-24T17:29:14.493Z,79.70
2023-03-24T17:31:42.178Z,80.10
2023-03-24T17:34:21.608Z,80.60
2023-03-24T17:36:49.471Z,82.10
2023-03-24T17:39:19.370Z,82.10
2023-03-24T17:41:46.982Z,83.70
2023-03-24T17:44:14.684Z,83.50
2023-03-24T17:46:44.413Z,84.20
2023-03-24T17:49:12.069Z,84.00
2023-03-24T17:51:39.721Z,83.60
2023-03-24T17:54:09.567Z,80.90
2023-03-24T17:56:37.311Z,79.40
2023-03-24T17:59:05.127Z,80.20
2023-03-24T18:01:35.085Z,80.10
2023-03-24T18:04:03.102Z,79.80
2023-03-24T18:06:32.628Z,80.10
2023-03-24T18:09:02.510Z,81.40
2023-03-24T18:11:30.155Z,82.70
2023-03-24T18:13:57.997Z,84.20
2023-03-24T18:16:27.790Z,82.90
2023-03-24T18:18:55.354Z,83.10
2023-03-24T18:21:22.976Z,83.70
2023-03-24T18:23:52.949Z,85.00
2023-03-24T18:26:20.739Z,85.80
2023-03-24T18:28:48.565Z,86.70
2023-03-24T18:31:18.681Z,88.10
2023-03-24T18:33:46.511Z,88.80
2023-03-24T18:36:14.294Z,89.50
2023-03-24T18:38:44.042Z,90.00
2023-03-24T18:41:13.712Z,90.20
2023-03-24T18:43:41.470Z,90.50
2023-03-24T18:46:11.549Z,90.30
2023-03-24T18:48:39.227Z,90.60
2023-03-24T18:51:06.941Z,90.80
2023-03-24T18:53:36.899Z,90.90
2023-03-24T18:56:04.471Z,91.30
2023-03-24T18:58:32.266Z,91.10
2023-03-24T19:01:02.120Z,91.60
2023-03-24T19:03:29.936Z,91.70
2023-03-24T19:05:57.787Z,91.80
2023-03-24T19:08:27.525Z,92.20
2023-03-24T19:10:55.110Z,92.20
2023-03-24T19:13:22.748Z,92.00
2023-03-24T19:15:52.760Z,92.10
2023-03-24T19:18:20.676Z,92.20
2023-03-24T19:20:48.288Z,92.60
2023-03-24T19:23:18.116Z,93.70
2023-03-24T19:25:45.683Z,94.40
2023-03-24T19:28:13.472Z,95.00
2023-03-24T19:30:43.399Z,95.30
2023-03-24T19:33:11.122Z,95.30
2023-03-24T19:35:39.201Z,95.50
2023-03-24T19:38:09.061Z,95.50
2023-03-24T19:40:36.628Z,95.20
2023-03-24T19:43:04.498Z,95.20
2023-03-24T19:45:34.451Z,94.80
2023-03-24T19:48:02.126Z,95.40
2023-03-24T19:50:29.840Z,96.20
2023-03-24T19:52:59.632Z,96.60
2023-03-24T19:55:27.202Z,97.00
2023-03-24T19:57:57.033Z,96.80
2023-03-24T20:00:26.872Z,97.30
2023-03-24T20:02:54.920Z,97.50
2023-03-24T20:05:27.693Z,97.50
2023-03-24T20:07:58.435Z,97.50
2023-03-24T20:10:27.511Z,97.80
2023-03-24T20:12:55.051Z,98.00
2023-03-24T20:15:22.849Z,97.20
2023-03-24T20:17:50.946Z,97.00
2023-03-24T20:20:18.692Z,96.30
2023-03-24T20:22:49.149Z,96.00
2023-03-24T20:25:16.831Z,96.30
2023-03-24T20:27:44.430Z,96.20
2023-03-24T20:30:14.187Z,96.20
2023-03-24T20:32:41.870Z,96.30
2023-03-24T20:35:10.753Z,96.40
2023-03-24T20:37:40.750Z,97.00
2023-03-24T20:40:08.524Z,96.80
2023-03-24T20:42:36.078Z,95.40
2023-03-24T20:45:04.811Z,94.80
2023-03-24T20:47:32.521Z,93.90
2023-03-24T20:50:00.204Z,94.30
2023-03-24T20:52:28.869Z,94.00
2023-03-24T20:54:56.523Z,94.30
2023-03-24T20:57:24.184Z,94.90
2023-03-24T20:59:53.908Z,95.30
2023-03-24T21:02:21.619Z,95.40
2023-03-24T21:04:49.193Z,95.40
2023-03-24T21:07:18.911Z,95.90
2023-03-24T21:09:46.686Z,95.90
2023-03-24T21:12:14.391Z,96.00
2023-03-24T21:14:45.383Z,96.20
2023-03-24T21:17:13.551Z,96.20
2023-03-24T21:19:41.333Z,96.00
2023-03-24T21:22:09.235Z,95.90
2023-03-24T21:24:39.110Z,95.90
2023-03-24T21:27:06.948Z,95.70
2023-03-24T21:29:35.387Z,95.30
2023-03-24T21:32:03.594Z,95.00
2023-03-24T21:34:32.017Z,96.10
2023-03-24T21:37:02.084Z,96.10
2023-03-24T21:39:29.981Z,96.70
2023-03-24T21:41:57.846Z,97.90
2023-03-24T21:44:25.663Z,98.00
2023-03-24T21:46:53.585Z,98.00
2023-03-24T21:49:21.673Z,97.80
2023-03-24T21:51:50.752Z,97.70
2023-03-24T21:54:18.716Z,97.80
2023-03-24T21:56:47.286Z,98.10
2023-03-24T21:59:17.993Z,98.30
2023-03-24T22:01:46.566Z,98.50
2023-03-24T22:04:14.196Z,97.60
2023-03-24T22:06:44.284Z,98.00
2023-03-24T22:09:12.255Z,97.40
2023-03-24T22:11:40.256Z,97.30
2023-03-24T22:14:10.144Z,96.90
2023-03-24T22:16:37.894Z,96.60
2023-03-24T22:19:06.573Z,97.40
2023-03-24T22:21:39.959Z,97.30
2023-03-24T22:24:20.264Z,97.50
2023-03-24T22:26:49.984Z,97.80
2023-03-24T22:29:17.548Z,98.50
2023-03-24T22:31:45.714Z,98.40
2023-03-24T22:34:13.591Z,98.40
2023-03-24T22:36:41.260Z,98.40
2023-03-24T22:39:09.059Z,98.40
2023-03-24T22:41:38.908Z,98.20
2023-03-24T22:44:06.546Z,97.90
2023-03-24T22:46:34.259Z,97.90
2023-03-24T22:49:04.169Z,98.30
2023-03-24T22:51:32.020Z,98.70
2023-03-24T22:53:59.821Z,98.80
2023-03-24T22:56:27.466Z,98.90
2023-03-24T22:58:55.162Z,99.20
2023-03-24T23:01:22.857Z,99.00
2023-03-24T23:03:50.538Z,98.50
2023-03-24T23:06:25.436Z,98.10
2023-03-24T23:08:55.252Z,97.90
2023-03-24T23:11:23.017Z,97.70
2023-03-24T23:13:50.702Z,97.80
2023-03-24T23:16:20.635Z,98.30
2023-03-24T23:18:48.382Z,98.10
2023-03-24T23:21:16.839Z,98.20
2023-03-24T23:23:46.751Z,98.30
2023-03-24T23:26:25.123Z,99.00
2023-03-24T23:29:00.110Z,99.50
2023-03-24T23:31:27.754Z,99.60
2023-03-24T23:33:55.372Z,99.50
2023-03-24T23:36:25.425Z,99.20
2023-03-24T23:38:53.315Z,99.00
2023-03-24T23:41:20.889Z,99.10
2023-03-24T23:43:48.865Z,99.30
2023-03-24T23:46:16.449Z,99.00
2023-03-24T23:48:44.262Z,99.40
2023-03-24T23:51:14.153Z,99.40
2023-03-24T23:53:41.741Z,99.70
2023-03-24T23:56:09.359Z,99.50
2023-03-24T23:58:39.217Z,99.80
